Ana Sayfa
METAR-TAF:

METAR-TAF

Havaalanları :

Indiana County Airport (Jimmy Stewart Field)

Indiana, Pensilvanya, Amerika Birleşik Devletleri

Enlem: 40-38N, Boylam: 079-06W, yükseklik: 429 m

Güncel hava durumu gözlemi

Rapor saat 23:55 UTC de 25 dakika önce yapıldı.
Sakin rüzgar
Sıcaklık 6°C
Nem 100%
Basınç 1018 hPa
Görüş mesafesi: 16.1 km
Açık gökyüzü

METAR: KIDI 232355Z AUTO 00000KT 10SM CLR 06/06 A3007 RMK A01

Saat: 20:20 (00:20 UTC)


TAF: eksik

4.000'den fazla havaalanı için hava durumu gözlemleri ve tahminleri (METAR ve TAF raporları).

Kullanılabilir istasyonlar harita üzerinde sarı ve kırmızı noktalarla gösterilir.

İstasyonun adını görmek için fareyi noktanın üzerinde gezdirin.

Sonrasında hava gözlem ve tahminlerini görmek için tıklayın.

Haritayı değiştirmek için: yaklaştırmak için siyah artı işaretli yeşil düğmeye ve uzaklaştırmak için de eksi işaretli düğmeye hızla tıklayın; bitişik haritalar için yeşil okları kullanın.


METAR-TAF: